sensor_id;sensor_type;location;lat;lon;timestamp;P1;durP1;ratioP1;P2;durP2;ratioP2
66478;SDS011;53294;47.912;13.526;2022-12-18T00:02:13;39.60;;;18.55;;
66478;SDS011;53294;47.912;13.526;2022-12-18T00:04:39;39.53;;;19.13;;
66478;SDS011;53294;47.912;13.526;2022-12-18T00:07:06;33.70;;;17.17;;
66478;SDS011;53294;47.912;13.526;2022-12-18T00:09:33;34.25;;;18.23;;
66478;SDS011;53294;47.912;13.526;2022-12-18T00:12:05;35.65;;;17.88;;
66478;SDS011;53294;47.912;13.526;2022-12-18T00:14:43;36.20;;;17.83;;
66478;SDS011;53294;47.912;13.526;2022-12-18T00:17:10;35.25;;;16.90;;
66478;SDS011;53294;47.912;13.526;2022-12-18T00:19:37;36.78;;;17.80;;
66478;SDS011;53294;47.912;13.526;2022-12-18T00:22:04;37.50;;;18.25;;
66478;SDS011;53294;47.912;13.526;2022-12-18T00:24:32;34.13;;;15.73;;
66478;SDS011;53294;47.912;13.526;2022-12-18T00:26:58;31.67;;;16.50;;
66478;SDS011;53294;47.912;13.526;2022-12-18T00:29:25;33.55;;;16.60;;
66478;SDS011;53294;47.912;13.526;2022-12-18T00:31:52;32.72;;;15.85;;
66478;SDS011;53294;47.912;13.526;2022-12-18T00:34:18;38.90;;;18.27;;
66478;SDS011;53294;47.912;13.526;2022-12-18T00:36:46;35.80;;;17.45;;
66478;SDS011;53294;47.912;13.526;2022-12-18T00:39:14;34.17;;;16.38;;
66478;SDS011;53294;47.912;13.526;2022-12-18T00:41:40;30.83;;;14.30;;
66478;SDS011;53294;47.912;13.526;2022-12-18T00:44:25;30.55;;;15.48;;
66478;SDS011;53294;47.912;13.526;2022-12-18T00:46:52;33.97;;;15.93;;
66478;SDS011;53294;47.912;13.526;2022-12-18T00:49:19;37.10;;;17.73;;
66478;SDS011;53294;47.912;13.526;2022-12-18T00:51:46;29.48;;;15.35;;
66478;SDS011;53294;47.912;13.526;2022-12-18T00:54:14;32.28;;;16.27;;
66478;SDS011;53294;47.912;13.526;2022-12-18T00:56:41;35.97;;;16.75;;
66478;SDS011;53294;47.912;13.526;2022-12-18T00:59:15;42.10;;;19.55;;
66478;SDS011;53294;47.912;13.526;2022-12-18T01:01:42;34.08;;;16.55;;
66478;SDS011;53294;47.912;13.526;2022-12-18T01:04:09;35.83;;;17.67;;
66478;SDS011;53294;47.912;13.526;2022-12-18T01:06:35;28.80;;;15.32;;
66478;SDS011;53294;47.912;13.526;2022-12-18T01:09:02;31.10;;;15.70;;
66478;SDS011;53294;47.912;13.526;2022-12-18T01:11:29;32.58;;;15.48;;
66478;SDS011;53294;47.912;13.526;2022-12-18T01:13:59;28.58;;;15.75;;
66478;SDS011;53294;47.912;13.526;2022-12-18T01:16:26;32.08;;;16.25;;
66478;SDS011;53294;47.912;13.526;2022-12-18T01:18:53;30.90;;;15.60;;
66478;SDS011;53294;47.912;13.526;2022-12-18T01:21:21;31.10;;;15.32;;
66478;SDS011;53294;47.912;13.526;2022-12-18T01:23:53;28.10;;;14.73;;
66478;SDS011;53294;47.912;13.526;2022-12-18T01:26:21;31.05;;;15.63;;
66478;SDS011;53294;47.912;13.526;2022-12-18T01:28:48;28.88;;;15.30;;
66478;SDS011;53294;47.912;13.526;2022-12-18T01:31:25;30.52;;;15.85;;
66478;SDS011;53294;47.912;13.526;2022-12-18T01:33:54;28.45;;;14.73;;
66478;SDS011;53294;47.912;13.526;2022-12-18T01:38:49;32.05;;;15.38;;
66478;SDS011;53294;47.912;13.526;2022-12-18T01:41:17;31.73;;;16.65;;
66478;SDS011;53294;47.912;13.526;2022-12-18T01:46:26;32.47;;;16.08;;
66478;SDS011;53294;47.912;13.526;2022-12-18T01:48:55;28.20;;;15.63;;
66478;SDS011;53294;47.912;13.526;2022-12-18T01:51:24;31.27;;;15.10;;
66478;SDS011;53294;47.912;13.526;2022-12-18T01:53:53;30.40;;;15.68;;
66478;SDS011;53294;47.912;13.526;2022-12-18T01:56:19;35.20;;;16.90;;
66478;SDS011;53294;47.912;13.526;2022-12-18T01:59:03;36.03;;;17.67;;
66478;SDS011;53294;47.912;13.526;2022-12-18T02:01:32;30.38;;;15.77;;
66478;SDS011;53294;47.912;13.526;2022-12-18T02:04:21;33.15;;;15.23;;
66478;SDS011;53294;47.912;13.526;2022-12-18T02:06:51;28.90;;;15.15;;
66478;SDS011;53294;47.912;13.526;2022-12-18T02:09:27;26.98;;;14.25;;
66478;SDS011;53294;47.912;13.526;2022-12-18T02:12:10;28.90;;;14.55;;
66478;SDS011;53294;47.912;13.526;2022-12-18T02:17:18;26.10;;;12.75;;
66478;SDS011;53294;47.912;13.526;2022-12-18T02:22:46;28.35;;;12.25;;
66478;SDS011;53294;47.912;13.526;2022-12-18T02:28:20;24.83;;;11.25;;
66478;SDS011;53294;47.912;13.526;2022-12-18T02:30:50;27.73;;;12.65;;
66478;SDS011;53294;47.912;13.526;2022-12-18T02:33:20;23.70;;;12.00;;
66478;SDS011;53294;47.912;13.526;2022-12-18T02:35:47;23.25;;;11.55;;
66478;SDS011;53294;47.912;13.526;2022-12-18T02:38:15;27.88;;;13.05;;
66478;SDS011;53294;47.912;13.526;2022-12-18T02:40:43;26.58;;;12.82;;
66478;SDS011;53294;47.912;13.526;2022-12-18T02:43:14;31.67;;;15.10;;
66478;SDS011;53294;47.912;13.526;2022-12-18T02:48:16;32.20;;;15.52;;
66478;SDS011;53294;47.912;13.526;2022-12-18T02:50:45;35.50;;;15.88;;
66478;SDS011;53294;47.912;13.526;2022-12-18T02:53:29;29.75;;;15.13;;
66478;SDS011;53294;47.912;13.526;2022-12-18T02:58:57;27.35;;;13.20;;
66478;SDS011;53294;47.912;13.526;2022-12-18T03:04:01;24.13;;;12.27;;
66478;SDS011;53294;47.912;13.526;2022-12-18T03:06:35;25.00;;;12.48;;
66478;SDS011;53294;47.912;13.526;2022-12-18T03:09:18;24.55;;;12.27;;
66478;SDS011;53294;47.912;13.526;2022-12-18T03:12:01;28.53;;;13.17;;
66478;SDS011;53294;47.912;13.526;2022-12-18T03:14:56;24.75;;;12.75;;
66478;SDS011;53294;47.912;13.526;2022-12-18T03:17:27;25.58;;;12.32;;
66478;SDS011;53294;47.912;13.526;2022-12-18T03:19:56;24.95;;;12.07;;
66478;SDS011;53294;47.912;13.526;2022-12-18T03:22:29;22.60;;;12.75;;
66478;SDS011;53294;47.912;13.526;2022-12-18T03:24:58;27.25;;;12.05;;
66478;SDS011;53294;47.912;13.526;2022-12-18T03:27:28;23.52;;;13.05;;
66478;SDS011;53294;47.912;13.526;2022-12-18T03:30:02;24.73;;;12.02;;
66478;SDS011;53294;47.912;13.526;2022-12-18T03:32:41;21.65;;;11.40;;
66478;SDS011;53294;47.912;13.526;2022-12-18T03:35:31;28.13;;;13.57;;
66478;SDS011;53294;47.912;13.526;2022-12-18T03:38:02;24.10;;;12.95;;
66478;SDS011;53294;47.912;13.526;2022-12-18T03:40:35;22.60;;;12.05;;
66478;SDS011;53294;47.912;13.526;2022-12-18T03:43:18;25.33;;;12.07;;
66478;SDS011;53294;47.912;13.526;2022-12-18T03:45:55;27.50;;;13.25;;
66478;SDS011;53294;47.912;13.526;2022-12-18T03:48:51;30.27;;;14.73;;
66478;SDS011;53294;47.912;13.526;2022-12-18T03:54:12;26.88;;;13.43;;
66478;SDS011;53294;47.912;13.526;2022-12-18T03:56:42;26.40;;;12.02;;
66478;SDS011;53294;47.912;13.526;2022-12-18T03:59:13;22.30;;;12.68;;
66478;SDS011;53294;47.912;13.526;2022-12-18T04:01:45;28.17;;;13.63;;
66478;SDS011;53294;47.912;13.526;2022-12-18T04:04:14;28.63;;;14.95;;
66478;SDS011;53294;47.912;13.526;2022-12-18T04:06:42;24.83;;;12.20;;
66478;SDS011;53294;47.912;13.526;2022-12-18T04:09:11;29.10;;;13.82;;
66478;SDS011;53294;47.912;13.526;2022-12-18T04:11:39;27.17;;;12.60;;
66478;SDS011;53294;47.912;13.526;2022-12-18T04:14:08;25.45;;;13.10;;
66478;SDS011;53294;47.912;13.526;2022-12-18T04:16:41;24.65;;;12.30;;
66478;SDS011;53294;47.912;13.526;2022-12-18T04:19:07;27.15;;;12.43;;
66478;SDS011;53294;47.912;13.526;2022-12-18T04:21:34;26.02;;;12.95;;
66478;SDS011;53294;47.912;13.526;2022-12-18T04:24:01;25.27;;;13.00;;
66478;SDS011;53294;47.912;13.526;2022-12-18T04:26:27;26.27;;;12.27;;
66478;SDS011;53294;47.912;13.526;2022-12-18T04:28:54;23.95;;;11.98;;
66478;SDS011;53294;47.912;13.526;2022-12-18T04:31:21;25.35;;;12.50;;
66478;SDS011;53294;47.912;13.526;2022-12-18T04:33:48;22.15;;;11.25;;
66478;SDS011;53294;47.912;13.526;2022-12-18T04:36:14;27.00;;;12.23;;
66478;SDS011;53294;47.912;13.526;2022-12-18T04:38:41;26.15;;;13.75;;
66478;SDS011;53294;47.912;13.526;2022-12-18T04:41:08;26.35;;;12.68;;
66478;SDS011;53294;47.912;13.526;2022-12-18T04:43:34;27.23;;;12.90;;
66478;SDS011;53294;47.912;13.526;2022-12-18T04:46:04;30.90;;;15.10;;
66478;SDS011;53294;47.912;13.526;2022-12-18T04:48:32;27.23;;;13.65;;
66478;SDS011;53294;47.912;13.526;2022-12-18T04:50:59;26.05;;;13.10;;
66478;SDS011;53294;47.912;13.526;2022-12-18T04:53:26;29.38;;;14.13;;
66478;SDS011;53294;47.912;13.526;2022-12-18T04:58:49;25.05;;;12.18;;
66478;SDS011;53294;47.912;13.526;2022-12-18T05:01:16;28.58;;;14.50;;
66478;SDS011;53294;47.912;13.526;2022-12-18T05:03:44;29.00;;;14.10;;
66478;SDS011;53294;47.912;13.526;2022-12-18T05:06:11;26.40;;;13.77;;
66478;SDS011;53294;47.912;13.526;2022-12-18T05:08:38;30.38;;;14.63;;
66478;SDS011;53294;47.912;13.526;2022-12-18T05:11:05;26.55;;;13.07;;
66478;SDS011;53294;47.912;13.526;2022-12-18T05:13:37;29.83;;;14.18;;
66478;SDS011;53294;47.912;13.526;2022-12-18T05:16:05;26.95;;;13.85;;
66478;SDS011;53294;47.912;13.526;2022-12-18T05:18:32;28.88;;;14.60;;
66478;SDS011;53294;47.912;13.526;2022-12-18T05:20:59;33.97;;;16.50;;
66478;SDS011;53294;47.912;13.526;2022-12-18T05:23:26;29.77;;;14.15;;
66478;SDS011;53294;47.912;13.526;2022-12-18T05:25:54;27.42;;;14.40;;
66478;SDS011;53294;47.912;13.526;2022-12-18T05:28:21;27.38;;;13.90;;
66478;SDS011;53294;47.912;13.526;2022-12-18T05:30:52;27.60;;;13.65;;
66478;SDS011;53294;47.912;13.526;2022-12-18T05:33:20;25.58;;;14.05;;
66478;SDS011;53294;47.912;13.526;2022-12-18T05:35:52;25.05;;;12.82;;
66478;SDS011;53294;47.912;13.526;2022-12-18T05:38:19;27.65;;;13.52;;
66478;SDS011;53294;47.912;13.526;2022-12-18T05:40:47;22.15;;;10.77;;
66478;SDS011;53294;47.912;13.526;2022-12-18T05:43:14;26.70;;;13.32;;
66478;SDS011;53294;47.912;13.526;2022-12-18T05:45:46;23.80;;;11.73;;
66478;SDS011;53294;47.912;13.526;2022-12-18T05:48:14;21.63;;;11.52;;
66478;SDS011;53294;47.912;13.526;2022-12-18T05:50:42;22.33;;;11.18;;
66478;SDS011;53294;47.912;13.526;2022-12-18T05:53:11;19.30;;;10.15;;
66478;SDS011;53294;47.912;13.526;2022-12-18T05:55:40;20.73;;;10.32;;
66478;SDS011;53294;47.912;13.526;2022-12-18T05:58:07;20.50;;;10.85;;
66478;SDS011;53294;47.912;13.526;2022-12-18T06:00:36;20.73;;;11.20;;
66478;SDS011;53294;47.912;13.526;2022-12-18T06:03:07;23.45;;;11.38;;
66478;SDS011;53294;47.912;13.526;2022-12-18T06:05:36;26.80;;;11.70;;
66478;SDS011;53294;47.912;13.526;2022-12-18T06:08:04;26.52;;;12.48;;
66478;SDS011;53294;47.912;13.526;2022-12-18T06:10:32;23.20;;;12.15;;
66478;SDS011;53294;47.912;13.526;2022-12-18T06:12:59;25.65;;;12.95;;
66478;SDS011;53294;47.912;13.526;2022-12-18T06:15:26;28.65;;;14.68;;
66478;SDS011;53294;47.912;13.526;2022-12-18T06:17:53;24.52;;;12.82;;
66478;SDS011;53294;47.912;13.526;2022-12-18T06:20:19;27.38;;;12.63;;
66478;SDS011;53294;47.912;13.526;2022-12-18T06:22:46;25.70;;;13.15;;
66478;SDS011;53294;47.912;13.526;2022-12-18T06:25:13;20.52;;;11.43;;
66478;SDS011;53294;47.912;13.526;2022-12-18T06:27:40;23.55;;;12.65;;
66478;SDS011;53294;47.912;13.526;2022-12-18T06:30:08;26.95;;;13.75;;
66478;SDS011;53294;47.912;13.526;2022-12-18T06:32:35;23.30;;;12.40;;
66478;SDS011;53294;47.912;13.526;2022-12-18T06:35:02;26.50;;;13.23;;
66478;SDS011;53294;47.912;13.526;2022-12-18T06:37:30;24.33;;;11.65;;
66478;SDS011;53294;47.912;13.526;2022-12-18T06:39:57;23.60;;;13.15;;
66478;SDS011;53294;47.912;13.526;2022-12-18T06:42:24;28.83;;;14.32;;
66478;SDS011;53294;47.912;13.526;2022-12-18T06:44:51;25.88;;;12.85;;
66478;SDS011;53294;47.912;13.526;2022-12-18T06:47:18;32.10;;;16.33;;
66478;SDS011;53294;47.912;13.526;2022-12-18T06:49:44;32.75;;;15.82;;
66478;SDS011;53294;47.912;13.526;2022-12-18T06:52:11;34.67;;;16.30;;
66478;SDS011;53294;47.912;13.526;2022-12-18T06:54:38;32.70;;;15.40;;
66478;SDS011;53294;47.912;13.526;2022-12-18T06:57:04;37.33;;;16.73;;
66478;SDS011;53294;47.912;13.526;2022-12-18T06:59:31;35.67;;;16.23;;
66478;SDS011;53294;47.912;13.526;2022-12-18T07:01:58;35.05;;;16.75;;
66478;SDS011;53294;47.912;13.526;2022-12-18T07:04:28;38.35;;;17.25;;
66478;SDS011;53294;47.912;13.526;2022-12-18T07:06:55;34.13;;;16.08;;
66478;SDS011;53294;47.912;13.526;2022-12-18T07:09:23;39.72;;;16.52;;
66478;SDS011;53294;47.912;13.526;2022-12-18T07:11:51;39.03;;;18.83;;
66478;SDS011;53294;47.912;13.526;2022-12-18T07:14:18;36.63;;;16.92;;
66478;SDS011;53294;47.912;13.526;2022-12-18T07:16:44;32.05;;;14.88;;
66478;SDS011;53294;47.912;13.526;2022-12-18T07:19:11;31.33;;;14.52;;
66478;SDS011;53294;47.912;13.526;2022-12-18T07:21:37;34.83;;;15.80;;
66478;SDS011;53294;47.912;13.526;2022-12-18T07:24:04;36.72;;;15.95;;
66478;SDS011;53294;47.912;13.526;2022-12-18T07:26:31;32.20;;;15.35;;
66478;SDS011;53294;47.912;13.526;2022-12-18T07:28:58;30.33;;;14.88;;
66478;SDS011;53294;47.912;13.526;2022-12-18T07:31:25;30.65;;;15.43;;
66478;SDS011;53294;47.912;13.526;2022-12-18T07:33:52;35.88;;;15.98;;
66478;SDS011;53294;47.912;13.526;2022-12-18T07:36:19;32.83;;;15.32;;
66478;SDS011;53294;47.912;13.526;2022-12-18T07:38:47;30.95;;;14.88;;
66478;SDS011;53294;47.912;13.526;2022-12-18T07:41:14;28.77;;;14.70;;
66478;SDS011;53294;47.912;13.526;2022-12-18T07:43:41;30.70;;;14.05;;
66478;SDS011;53294;47.912;13.526;2022-12-18T07:46:09;32.55;;;13.98;;
66478;SDS011;53294;47.912;13.526;2022-12-18T07:48:39;29.60;;;13.90;;
66478;SDS011;53294;47.912;13.526;2022-12-18T07:51:06;29.50;;;14.93;;
66478;SDS011;53294;47.912;13.526;2022-12-18T07:53:34;33.92;;;14.85;;
66478;SDS011;53294;47.912;13.526;2022-12-18T07:56:03;28.00;;;13.18;;
66478;SDS011;53294;47.912;13.526;2022-12-18T07:58:55;23.15;;;12.38;;
66478;SDS011;53294;47.912;13.526;2022-12-18T08:01:22;26.65;;;13.05;;
66478;SDS011;53294;47.912;13.526;2022-12-18T08:03:49;25.58;;;12.98;;
66478;SDS011;53294;47.912;13.526;2022-12-18T08:06:17;26.70;;;13.85;;
66478;SDS011;53294;47.912;13.526;2022-12-18T08:08:44;21.70;;;11.07;;
66478;SDS011;53294;47.912;13.526;2022-12-18T08:11:11;31.27;;;15.65;;
66478;SDS011;53294;47.912;13.526;2022-12-18T08:13:37;29.50;;;12.75;;
66478;SDS011;53294;47.912;13.526;2022-12-18T08:16:05;23.13;;;12.88;;
66478;SDS011;53294;47.912;13.526;2022-12-18T08:18:34;30.23;;;15.48;;
66478;SDS011;53294;47.912;13.526;2022-12-18T08:21:12;34.80;;;15.60;;
66478;SDS011;53294;47.912;13.526;2022-12-18T08:23:41;34.22;;;16.45;;
66478;SDS011;53294;47.912;13.526;2022-12-18T08:26:09;31.80;;;14.57;;
66478;SDS011;53294;47.912;13.526;2022-12-18T08:28:37;26.63;;;14.00;;
66478;SDS011;53294;47.912;13.526;2022-12-18T08:31:04;30.13;;;14.35;;
66478;SDS011;53294;47.912;13.526;2022-12-18T08:33:31;30.88;;;14.80;;
66478;SDS011;53294;47.912;13.526;2022-12-18T08:35:59;29.20;;;14.02;;
66478;SDS011;53294;47.912;13.526;2022-12-18T08:38:26;28.65;;;13.63;;
66478;SDS011;53294;47.912;13.526;2022-12-18T08:40:59;28.77;;;13.88;;
66478;SDS011;53294;47.912;13.526;2022-12-18T08:43:27;33.17;;;14.70;;
66478;SDS011;53294;47.912;13.526;2022-12-18T08:46:15;27.20;;;13.65;;
66478;SDS011;53294;47.912;13.526;2022-12-18T08:48:43;30.13;;;14.18;;
66478;SDS011;53294;47.912;13.526;2022-12-18T08:51:10;29.58;;;14.25;;
66478;SDS011;53294;47.912;13.526;2022-12-18T08:53:37;29.83;;;14.05;;
66478;SDS011;53294;47.912;13.526;2022-12-18T08:56:04;29.63;;;15.05;;
66478;SDS011;53294;47.912;13.526;2022-12-18T08:58:31;31.83;;;14.98;;
66478;SDS011;53294;47.912;13.526;2022-12-18T09:01:04;33.70;;;14.95;;
66478;SDS011;53294;47.912;13.526;2022-12-18T09:03:33;27.08;;;14.52;;
66478;SDS011;53294;47.912;13.526;2022-12-18T09:06:00;30.23;;;15.23;;
66478;SDS011;53294;47.912;13.526;2022-12-18T09:08:27;32.25;;;15.57;;
66478;SDS011;53294;47.912;13.526;2022-12-18T09:10:54;31.17;;;16.45;;
66478;SDS011;53294;47.912;13.526;2022-12-18T09:13:21;26.10;;;14.40;;
66478;SDS011;53294;47.912;13.526;2022-12-18T09:15:49;30.10;;;13.35;;
66478;SDS011;53294;47.912;13.526;2022-12-18T09:18:18;27.77;;;13.75;;
66478;SDS011;53294;47.912;13.526;2022-12-18T09:20:47;30.10;;;13.75;;
66478;SDS011;53294;47.912;13.526;2022-12-18T09:23:13;25.33;;;13.90;;
66478;SDS011;53294;47.912;13.526;2022-12-18T09:25:40;24.15;;;12.40;;
66478;SDS011;53294;47.912;13.526;2022-12-18T09:30:44;28.02;;;13.98;;
66478;SDS011;53294;47.912;13.526;2022-12-18T09:33:13;25.13;;;12.50;;
66478;SDS011;53294;47.912;13.526;2022-12-18T09:35:40;26.75;;;13.30;;
66478;SDS011;53294;47.912;13.526;2022-12-18T09:38:09;26.50;;;13.07;;
66478;SDS011;53294;47.912;13.526;2022-12-18T09:40:43;24.45;;;13.25;;
66478;SDS011;53294;47.912;13.526;2022-12-18T09:45:53;27.02;;;13.52;;
66478;SDS011;53294;47.912;13.526;2022-12-18T09:48:44;32.63;;;14.68;;
66478;SDS011;53294;47.912;13.526;2022-12-18T09:51:18;30.15;;;15.13;;
66478;SDS011;53294;47.912;13.526;2022-12-18T09:53:52;30.40;;;13.70;;
66478;SDS011;53294;47.912;13.526;2022-12-18T09:56:24;30.02;;;13.93;;
66478;SDS011;53294;47.912;13.526;2022-12-18T09:59:01;28.27;;;13.63;;
66478;SDS011;53294;47.912;13.526;2022-12-18T10:01:29;34.55;;;15.32;;
66478;SDS011;53294;47.912;13.526;2022-12-18T10:04:08;35.90;;;15.55;;
66478;SDS011;53294;47.912;13.526;2022-12-18T10:14:36;31.63;;;15.85;;
66478;SDS011;53294;47.912;13.526;2022-12-18T10:28:32;41.78;;;18.20;;
66478;SDS011;53294;47.912;13.526;2022-12-18T10:31:00;33.40;;;15.70;;
66478;SDS011;53294;47.912;13.526;2022-12-18T10:33:30;31.33;;;16.27;;
66478;SDS011;53294;47.912;13.526;2022-12-18T10:35:59;34.10;;;17.05;;
66478;SDS011;53294;47.912;13.526;2022-12-18T10:38:27;33.92;;;16.73;;
66478;SDS011;53294;47.912;13.526;2022-12-18T10:48:33;33.28;;;16.33;;
66478;SDS011;53294;47.912;13.526;2022-12-18T10:51:02;36.58;;;16.67;;
66478;SDS011;53294;47.912;13.526;2022-12-18T10:53:38;28.05;;;14.52;;
66478;SDS011;53294;47.912;13.526;2022-12-18T10:56:07;26.25;;;14.93;;
66478;SDS011;53294;47.912;13.526;2022-12-18T10:58:35;30.23;;;16.73;;
66478;SDS011;53294;47.912;13.526;2022-12-18T11:01:11;31.52;;;15.65;;
66478;SDS011;53294;47.912;13.526;2022-12-18T11:03:44;29.38;;;14.52;;
66478;SDS011;53294;47.912;13.526;2022-12-18T11:06:13;30.40;;;15.35;;
66478;SDS011;53294;47.912;13.526;2022-12-18T11:08:43;29.45;;;16.10;;
66478;SDS011;53294;47.912;13.526;2022-12-18T11:11:23;30.55;;;15.73;;
66478;SDS011;53294;47.912;13.526;2022-12-18T11:16:47;29.65;;;14.75;;
66478;SDS011;53294;47.912;13.526;2022-12-18T11:19:37;31.30;;;15.73;;
66478;SDS011;53294;47.912;13.526;2022-12-18T11:22:25;30.73;;;14.70;;
66478;SDS011;53294;47.912;13.526;2022-12-18T11:25:02;27.42;;;13.65;;
66478;SDS011;53294;47.912;13.526;2022-12-18T11:27:53;29.42;;;14.93;;
66478;SDS011;53294;47.912;13.526;2022-12-18T11:32:49;27.77;;;15.25;;
66478;SDS011;53294;47.912;13.526;2022-12-18T11:40:35;31.20;;;16.52;;
66478;SDS011;53294;47.912;13.526;2022-12-18T11:43:09;33.58;;;17.63;;
66478;SDS011;53294;47.912;13.526;2022-12-18T11:45:43;30.20;;;16.25;;
66478;SDS011;53294;47.912;13.526;2022-12-18T11:48:22;33.25;;;15.98;;
66478;SDS011;53294;47.912;13.526;2022-12-18T11:50:54;30.92;;;15.38;;
66478;SDS011;53294;47.912;13.526;2022-12-18T11:53:23;32.72;;;14.70;;
66478;SDS011;53294;47.912;13.526;2022-12-18T11:59:13;31.33;;;15.70;;
66478;SDS011;53294;47.912;13.526;2022-12-18T12:01:46;38.90;;;16.45;;
66478;SDS011;53294;47.912;13.526;2022-12-18T12:04:30;30.67;;;16.38;;
66478;SDS011;53294;47.912;13.526;2022-12-18T12:07:17;33.30;;;16.10;;
66478;SDS011;53294;47.912;13.526;2022-12-18T12:15:03;29.60;;;14.65;;
66478;SDS011;53294;47.912;13.526;2022-12-18T12:17:50;34.05;;;17.02;;
66478;SDS011;53294;47.912;13.526;2022-12-18T12:20:27;33.83;;;16.30;;
66478;SDS011;53294;47.912;13.526;2022-12-18T12:32:39;31.88;;;15.63;;
66478;SDS011;53294;47.912;13.526;2022-12-18T12:35:17;29.67;;;15.02;;
66478;SDS011;53294;47.912;13.526;2022-12-18T12:40:48;29.98;;;16.95;;
66478;SDS011;53294;47.912;13.526;2022-12-18T12:43:42;36.20;;;18.30;;
66478;SDS011;53294;47.912;13.526;2022-12-18T12:46:17;30.95;;;14.85;;
66478;SDS011;53294;47.912;13.526;2022-12-18T12:51:30;30.02;;;14.93;;
66478;SDS011;53294;47.912;13.526;2022-12-18T12:54:00;29.10;;;15.35;;
66478;SDS011;53294;47.912;13.526;2022-12-18T12:56:36;33.42;;;15.88;;
66478;SDS011;53294;47.912;13.526;2022-12-18T13:01:54;30.00;;;14.07;;
66478;SDS011;53294;47.912;13.526;2022-12-18T13:15:28;29.60;;;15.95;;
66478;SDS011;53294;47.912;13.526;2022-12-18T13:23:32;33.65;;;16.05;;
66478;SDS011;53294;47.912;13.526;2022-12-18T13:46:01;33.28;;;17.63;;
66478;SDS011;53294;47.912;13.526;2022-12-18T13:48:32;40.22;;;17.15;;
66478;SDS011;53294;47.912;13.526;2022-12-18T13:51:05;36.67;;;17.83;;
66478;SDS011;53294;47.912;13.526;2022-12-18T13:53:37;30.55;;;15.02;;
66478;SDS011;53294;47.912;13.526;2022-12-18T13:56:08;31.17;;;15.55;;
66478;SDS011;53294;47.912;13.526;2022-12-18T13:58:35;28.98;;;14.32;;
66478;SDS011;53294;47.912;13.526;2022-12-18T14:01:02;27.42;;;14.52;;
66478;SDS011;53294;47.912;13.526;2022-12-18T14:03:31;27.35;;;14.88;;
66478;SDS011;53294;47.912;13.526;2022-12-18T14:05:59;25.15;;;13.93;;
66478;SDS011;53294;47.912;13.526;2022-12-18T14:08:32;29.52;;;16.08;;
66478;SDS011;53294;47.912;13.526;2022-12-18T14:11:03;29.92;;;15.43;;
66478;SDS011;53294;47.912;13.526;2022-12-18T14:13:36;32.50;;;16.13;;
66478;SDS011;53294;47.912;13.526;2022-12-18T14:16:07;30.25;;;15.23;;
66478;SDS011;53294;47.912;13.526;2022-12-18T14:18:48;30.33;;;15.85;;
66478;SDS011;53294;47.912;13.526;2022-12-18T14:21:20;33.25;;;17.38;;
66478;SDS011;53294;47.912;13.526;2022-12-18T14:26:31;34.83;;;17.38;;
66478;SDS011;53294;47.912;13.526;2022-12-18T14:29:00;36.55;;;14.98;;
66478;SDS011;53294;47.912;13.526;2022-12-18T14:31:46;28.50;;;14.27;;
66478;SDS011;53294;47.912;13.526;2022-12-18T14:34:51;26.08;;;14.80;;
66478;SDS011;53294;47.912;13.526;2022-12-18T14:37:21;31.75;;;16.75;;
66478;SDS011;53294;47.912;13.526;2022-12-18T14:40:00;28.50;;;16.42;;
66478;SDS011;53294;47.912;13.526;2022-12-18T14:42:36;30.23;;;15.18;;
66478;SDS011;53294;47.912;13.526;2022-12-18T14:48:08;30.58;;;15.65;;
66478;SDS011;53294;47.912;13.526;2022-12-18T14:50:56;33.28;;;17.02;;
66478;SDS011;53294;47.912;13.526;2022-12-18T14:53:32;27.08;;;14.57;;
66478;SDS011;53294;47.912;13.526;2022-12-18T14:56:03;29.10;;;14.93;;
66478;SDS011;53294;47.912;13.526;2022-12-18T14:58:43;31.08;;;15.10;;
66478;SDS011;53294;47.912;13.526;2022-12-18T15:01:45;26.60;;;14.00;;
66478;SDS011;53294;47.912;13.526;2022-12-18T15:04:27;31.13;;;14.60;;
66478;SDS011;53294;47.912;13.526;2022-12-18T15:07:05;31.38;;;15.30;;
66478;SDS011;53294;47.912;13.526;2022-12-18T15:09:32;34.03;;;16.35;;
66478;SDS011;53294;47.912;13.526;2022-12-18T15:12:00;31.05;;;15.07;;
66478;SDS011;53294;47.912;13.526;2022-12-18T15:14:35;29.85;;;15.10;;
66478;SDS011;53294;47.912;13.526;2022-12-18T15:17:14;31.38;;;15.50;;
66478;SDS011;53294;47.912;13.526;2022-12-18T15:19:45;33.35;;;14.88;;
66478;SDS011;53294;47.912;13.526;2022-12-18T15:22:34;30.23;;;15.65;;
66478;SDS011;53294;47.912;13.526;2022-12-18T15:25:01;23.58;;;13.02;;
66478;SDS011;53294;47.912;13.526;2022-12-18T15:27:49;30.92;;;15.52;;
66478;SDS011;53294;47.912;13.526;2022-12-18T15:30:19;26.75;;;14.15;;
66478;SDS011;53294;47.912;13.526;2022-12-18T15:32:48;27.17;;;13.82;;
66478;SDS011;53294;47.912;13.526;2022-12-18T15:37:42;31.38;;;14.98;;
66478;SDS011;53294;47.912;13.526;2022-12-18T15:40:12;29.88;;;14.10;;
66478;SDS011;53294;47.912;13.526;2022-12-18T15:42:45;25.17;;;13.55;;
66478;SDS011;53294;47.912;13.526;2022-12-18T15:45:32;26.98;;;14.77;;
66478;SDS011;53294;47.912;13.526;2022-12-18T15:47:59;32.53;;;14.82;;
66478;SDS011;53294;47.912;13.526;2022-12-18T15:50:26;27.70;;;15.45;;
66478;SDS011;53294;47.912;13.526;2022-12-18T15:52:54;31.10;;;15.40;;
66478;SDS011;53294;47.912;13.526;2022-12-18T15:55:22;32.65;;;15.77;;
66478;SDS011;53294;47.912;13.526;2022-12-18T15:58:09;33.50;;;15.93;;
66478;SDS011;53294;47.912;13.526;2022-12-18T16:00:38;33.35;;;16.63;;
66478;SDS011;53294;47.912;13.526;2022-12-18T16:03:06;36.58;;;16.88;;
66478;SDS011;53294;47.912;13.526;2022-12-18T16:05:33;30.17;;;16.65;;
66478;SDS011;53294;47.912;13.526;2022-12-18T16:08:00;30.05;;;15.73;;
66478;SDS011;53294;47.912;13.526;2022-12-18T16:10:27;30.63;;;15.68;;
66478;SDS011;53294;47.912;13.526;2022-12-18T16:12:53;29.70;;;16.05;;
66478;SDS011;53294;47.912;13.526;2022-12-18T16:15:20;29.63;;;15.60;;
66478;SDS011;53294;47.912;13.526;2022-12-18T16:17:50;31.25;;;16.30;;
66478;SDS011;53294;47.912;13.526;2022-12-18T16:20:21;27.88;;;15.05;;
66478;SDS011;53294;47.912;13.526;2022-12-18T16:22:48;31.83;;;16.40;;
66478;SDS011;53294;47.912;13.526;2022-12-18T16:25:17;31.67;;;17.70;;
66478;SDS011;53294;47.912;13.526;2022-12-18T16:27:52;30.85;;;15.77;;
66478;SDS011;53294;47.912;13.526;2022-12-18T16:30:22;30.02;;;15.75;;
66478;SDS011;53294;47.912;13.526;2022-12-18T16:32:57;33.38;;;15.93;;
66478;SDS011;53294;47.912;13.526;2022-12-18T16:35:25;32.00;;;16.42;;
66478;SDS011;53294;47.912;13.526;2022-12-18T16:37:52;26.17;;;13.70;;
66478;SDS011;53294;47.912;13.526;2022-12-18T16:40:19;33.97;;;17.58;;
66478;SDS011;53294;47.912;13.526;2022-12-18T16:42:46;32.47;;;16.08;;
66478;SDS011;53294;47.912;13.526;2022-12-18T16:45:15;33.47;;;17.13;;
66478;SDS011;53294;47.912;13.526;2022-12-18T16:47:43;33.20;;;17.33;;
66478;SDS011;53294;47.912;13.526;2022-12-18T16:50:10;36.67;;;18.08;;
66478;SDS011;53294;47.912;13.526;2022-12-18T16:52:37;30.95;;;16.48;;